sensor_id;sensor_type;location;lat;lon;timestamp;P1;durP1;ratioP1;P2;durP2;ratioP2
63046;SDS011;62025;39.238;9.126;2023-05-16T00:00:23;6.55;;;3.15;;
63046;SDS011;62025;39.238;9.126;2023-05-16T00:02:50;5.32;;;3.08;;
63046;SDS011;62025;39.238;9.126;2023-05-16T00:05:16;6.68;;;2.65;;
63046;SDS011;62025;39.238;9.126;2023-05-16T00:07:42;6.75;;;3.15;;
63046;SDS011;62025;39.238;9.126;2023-05-16T00:10:10;7.00;;;3.28;;
63046;SDS011;62025;39.238;9.126;2023-05-16T00:12:36;9.15;;;3.40;;
63046;SDS011;62025;39.238;9.126;2023-05-16T00:15:07;7.25;;;2.90;;
63046;SDS011;62025;39.238;9.126;2023-05-16T00:17:38;5.05;;;2.63;;
63046;SDS011;62025;39.238;9.126;2023-05-16T00:20:05;7.70;;;2.88;;
63046;SDS011;62025;39.238;9.126;2023-05-16T00:22:33;8.80;;;3.10;;
63046;SDS011;62025;39.238;9.126;2023-05-16T00:24:59;11.60;;;2.80;;
63046;SDS011;62025;39.238;9.126;2023-05-16T00:27:25;5.25;;;3.03;;
63046;SDS011;62025;39.238;9.126;2023-05-16T00:29:51;6.15;;;2.72;;
63046;SDS011;62025;39.238;9.126;2023-05-16T00:32:17;8.43;;;2.60;;
63046;SDS011;62025;39.238;9.126;2023-05-16T00:34:43;10.30;;;2.80;;
63046;SDS011;62025;39.238;9.126;2023-05-16T00:37:09;9.25;;;3.10;;
63046;SDS011;62025;39.238;9.126;2023-05-16T00:39:35;7.50;;;2.55;;
63046;SDS011;62025;39.238;9.126;2023-05-16T00:42:01;7.70;;;2.78;;
63046;SDS011;62025;39.238;9.126;2023-05-16T00:44:29;6.77;;;2.80;;
63046;SDS011;62025;39.238;9.126;2023-05-16T00:46:55;5.72;;;2.50;;
63046;SDS011;62025;39.238;9.126;2023-05-16T00:49:22;8.10;;;3.00;;
63046;SDS011;62025;39.238;9.126;2023-05-16T00:51:49;6.35;;;2.65;;
63046;SDS011;62025;39.238;9.126;2023-05-16T00:54:16;5.28;;;2.85;;
63046;SDS011;62025;39.238;9.126;2023-05-16T00:56:43;10.15;;;2.75;;
63046;SDS011;62025;39.238;9.126;2023-05-16T00:59:08;6.50;;;2.70;;
63046;SDS011;62025;39.238;9.126;2023-05-16T01:01:35;8.88;;;2.92;;
63046;SDS011;62025;39.238;9.126;2023-05-16T01:04:02;6.47;;;2.60;;
63046;SDS011;62025;39.238;9.126;2023-05-16T01:06:29;5.35;;;2.22;;
63046;SDS011;62025;39.238;9.126;2023-05-16T01:08:56;5.20;;;2.28;;
63046;SDS011;62025;39.238;9.126;2023-05-16T01:14:11;6.63;;;2.83;;
63046;SDS011;62025;39.238;9.126;2023-05-16T01:22:57;6.10;;;2.55;;
63046;SDS011;62025;39.238;9.126;2023-05-16T01:28:28;7.43;;;2.65;;
63046;SDS011;62025;39.238;9.126;2023-05-16T01:30:54;6.05;;;2.58;;
63046;SDS011;62025;39.238;9.126;2023-05-16T01:33:21;7.07;;;3.03;;
63046;SDS011;62025;39.238;9.126;2023-05-16T01:35:52;4.88;;;2.50;;
63046;SDS011;62025;39.238;9.126;2023-05-16T01:38:40;10.45;;;2.50;;
63046;SDS011;62025;39.238;9.126;2023-05-16T01:41:38;6.35;;;3.08;;
63046;SDS011;62025;39.238;9.126;2023-05-16T01:44:34;9.82;;;2.88;;
63046;SDS011;62025;39.238;9.126;2023-05-16T01:47:13;5.28;;;2.58;;
63046;SDS011;62025;39.238;9.126;2023-05-16T01:49:50;7.90;;;2.83;;
63046;SDS011;62025;39.238;9.126;2023-05-16T01:52:43;7.85;;;2.88;;
63046;SDS011;62025;39.238;9.126;2023-05-16T01:55:47;6.65;;;2.67;;
63046;SDS011;62025;39.238;9.126;2023-05-16T01:58:16;7.07;;;2.70;;
63046;SDS011;62025;39.238;9.126;2023-05-16T02:00:46;8.15;;;2.80;;
63046;SDS011;62025;39.238;9.126;2023-05-16T02:03:12;5.20;;;2.60;;
63046;SDS011;62025;39.238;9.126;2023-05-16T02:05:38;8.45;;;2.70;;
63046;SDS011;62025;39.238;9.126;2023-05-16T02:08:04;8.90;;;2.85;;
63046;SDS011;62025;39.238;9.126;2023-05-16T02:10:30;5.88;;;2.67;;
63046;SDS011;62025;39.238;9.126;2023-05-16T02:12:58;11.77;;;3.10;;
63046;SDS011;62025;39.238;9.126;2023-05-16T02:15:24;7.78;;;2.67;;
63046;SDS011;62025;39.238;9.126;2023-05-16T02:17:50;5.50;;;2.47;;
63046;SDS011;62025;39.238;9.126;2023-05-16T02:20:16;9.90;;;3.03;;
63046;SDS011;62025;39.238;9.126;2023-05-16T02:22:42;7.85;;;2.70;;
63046;SDS011;62025;39.238;9.126;2023-05-16T02:25:11;7.10;;;2.70;;
63046;SDS011;62025;39.238;9.126;2023-05-16T02:27:40;9.75;;;2.53;;
63046;SDS011;62025;39.238;9.126;2023-05-16T02:30:08;6.03;;;2.60;;
63046;SDS011;62025;39.238;9.126;2023-05-16T02:35:09;6.68;;;2.90;;
63046;SDS011;62025;39.238;9.126;2023-05-16T02:37:36;9.38;;;2.95;;
63046;SDS011;62025;39.238;9.126;2023-05-16T02:40:02;6.75;;;3.05;;
63046;SDS011;62025;39.238;9.126;2023-05-16T02:42:35;7.10;;;2.40;;
63046;SDS011;62025;39.238;9.126;2023-05-16T02:45:01;6.60;;;3.00;;
63046;SDS011;62025;39.238;9.126;2023-05-16T02:47:27;5.43;;;2.47;;
63046;SDS011;62025;39.238;9.126;2023-05-16T02:49:53;6.88;;;2.85;;
63046;SDS011;62025;39.238;9.126;2023-05-16T02:52:19;6.60;;;2.80;;
63046;SDS011;62025;39.238;9.126;2023-05-16T02:54:46;8.35;;;2.60;;
63046;SDS011;62025;39.238;9.126;2023-05-16T02:57:12;7.03;;;2.72;;
63046;SDS011;62025;39.238;9.126;2023-05-16T02:59:38;7.63;;;2.75;;
63046;SDS011;62025;39.238;9.126;2023-05-16T03:02:04;7.32;;;2.78;;
63046;SDS011;62025;39.238;9.126;2023-05-16T03:04:32;6.72;;;2.58;;
63046;SDS011;62025;39.238;9.126;2023-05-16T03:06:58;6.60;;;2.78;;
63046;SDS011;62025;39.238;9.126;2023-05-16T03:09:26;8.80;;;2.67;;
63046;SDS011;62025;39.238;9.126;2023-05-16T03:11:52;8.13;;;2.92;;
63046;SDS011;62025;39.238;9.126;2023-05-16T03:14:18;7.63;;;2.78;;
63046;SDS011;62025;39.238;9.126;2023-05-16T03:16:45;7.10;;;2.83;;
63046;SDS011;62025;39.238;9.126;2023-05-16T03:19:11;10.55;;;3.05;;
63046;SDS011;62025;39.238;9.126;2023-05-16T03:21:38;7.13;;;3.00;;
63046;SDS011;62025;39.238;9.126;2023-05-16T03:24:04;4.43;;;2.50;;
63046;SDS011;62025;39.238;9.126;2023-05-16T03:26:33;7.32;;;2.90;;
63046;SDS011;62025;39.238;9.126;2023-05-16T03:28:59;6.82;;;2.97;;
63046;SDS011;62025;39.238;9.126;2023-05-16T03:31:25;7.40;;;2.72;;
63046;SDS011;62025;39.238;9.126;2023-05-16T03:33:51;4.85;;;2.55;;
63046;SDS011;62025;39.238;9.126;2023-05-16T03:36:19;6.63;;;2.95;;
63046;SDS011;62025;39.238;9.126;2023-05-16T03:38:46;13.38;;;3.13;;
63046;SDS011;62025;39.238;9.126;2023-05-16T03:41:13;10.60;;;3.10;;
63046;SDS011;62025;39.238;9.126;2023-05-16T03:43:38;6.78;;;2.88;;
63046;SDS011;62025;39.238;9.126;2023-05-16T03:46:05;6.60;;;2.70;;
63046;SDS011;62025;39.238;9.126;2023-05-16T03:48:31;10.30;;;2.80;;
63046;SDS011;62025;39.238;9.126;2023-05-16T03:50:57;5.85;;;2.85;;
63046;SDS011;62025;39.238;9.126;2023-05-16T03:53:23;7.68;;;3.03;;
63046;SDS011;62025;39.238;9.126;2023-05-16T03:55:49;5.85;;;3.00;;
63046;SDS011;62025;39.238;9.126;2023-05-16T03:58:15;7.55;;;3.25;;
63046;SDS011;62025;39.238;9.126;2023-05-16T04:00:41;5.88;;;2.88;;
63046;SDS011;62025;39.238;9.126;2023-05-16T04:03:07;7.82;;;3.10;;
63046;SDS011;62025;39.238;9.126;2023-05-16T04:05:33;6.07;;;3.03;;
63046;SDS011;62025;39.238;9.126;2023-05-16T04:07:59;6.35;;;2.90;;
63046;SDS011;62025;39.238;9.126;2023-05-16T04:10:25;7.47;;;3.30;;
63046;SDS011;62025;39.238;9.126;2023-05-16T04:12:52;9.00;;;3.28;;
63046;SDS011;62025;39.238;9.126;2023-05-16T04:15:18;9.73;;;3.40;;
63046;SDS011;62025;39.238;9.126;2023-05-16T04:17:45;8.48;;;3.60;;
63046;SDS011;62025;39.238;9.126;2023-05-16T04:20:11;7.10;;;3.10;;
63046;SDS011;62025;39.238;9.126;2023-05-16T04:22:37;9.68;;;3.50;;
63046;SDS011;62025;39.238;9.126;2023-05-16T04:25:03;8.68;;;3.47;;
63046;SDS011;62025;39.238;9.126;2023-05-16T04:27:29;8.40;;;3.67;;
63046;SDS011;62025;39.238;9.126;2023-05-16T04:29:55;7.30;;;4.03;;
63046;SDS011;62025;39.238;9.126;2023-05-16T04:32:23;10.05;;;3.97;;
63046;SDS011;62025;39.238;9.126;2023-05-16T04:34:49;8.43;;;4.38;;
63046;SDS011;62025;39.238;9.126;2023-05-16T04:39:44;8.65;;;4.25;;
63046;SDS011;62025;39.238;9.126;2023-05-16T04:42:11;10.07;;;4.13;;
63046;SDS011;62025;39.238;9.126;2023-05-16T04:44:37;7.20;;;3.95;;
63046;SDS011;62025;39.238;9.126;2023-05-16T04:47:03;6.68;;;3.53;;
63046;SDS011;62025;39.238;9.126;2023-05-16T04:49:29;8.85;;;3.72;;
63046;SDS011;62025;39.238;9.126;2023-05-16T04:51:55;9.73;;;4.22;;
63046;SDS011;62025;39.238;9.126;2023-05-16T04:54:21;8.35;;;3.92;;
63046;SDS011;62025;39.238;9.126;2023-05-16T04:56:47;9.15;;;3.95;;
63046;SDS011;62025;39.238;9.126;2023-05-16T04:59:13;10.15;;;4.07;;
63046;SDS011;62025;39.238;9.126;2023-05-16T05:01:39;13.88;;;4.55;;
63046;SDS011;62025;39.238;9.126;2023-05-16T05:04:06;11.13;;;4.40;;
63046;SDS011;62025;39.238;9.126;2023-05-16T05:06:32;9.80;;;4.25;;
63046;SDS011;62025;39.238;9.126;2023-05-16T05:08:58;9.55;;;4.30;;
63046;SDS011;62025;39.238;9.126;2023-05-16T05:11:24;13.90;;;5.03;;
63046;SDS011;62025;39.238;9.126;2023-05-16T05:13:51;11.75;;;4.32;;
63046;SDS011;62025;39.238;9.126;2023-05-16T05:16:17;11.48;;;5.20;;
63046;SDS011;62025;39.238;9.126;2023-05-16T05:18:43;11.10;;;4.85;;
63046;SDS011;62025;39.238;9.126;2023-05-16T05:21:09;14.70;;;5.05;;
63046;SDS011;62025;39.238;9.126;2023-05-16T05:23:35;13.10;;;5.32;;
63046;SDS011;62025;39.238;9.126;2023-05-16T05:26:01;12.45;;;5.40;;
63046;SDS011;62025;39.238;9.126;2023-05-16T05:28:27;16.67;;;5.40;;
63046;SDS011;62025;39.238;9.126;2023-05-16T05:30:53;14.85;;;5.45;;
63046;SDS011;62025;39.238;9.126;2023-05-16T05:33:22;14.23;;;4.88;;
63046;SDS011;62025;39.238;9.126;2023-05-16T05:35:55;11.90;;;4.95;;
63046;SDS011;62025;39.238;9.126;2023-05-16T05:38:21;15.13;;;5.65;;
63046;SDS011;62025;39.238;9.126;2023-05-16T05:40:47;15.73;;;5.47;;
63046;SDS011;62025;39.238;9.126;2023-05-16T05:43:16;18.13;;;5.88;;
63046;SDS011;62025;39.238;9.126;2023-05-16T05:45:43;14.45;;;6.07;;
63046;SDS011;62025;39.238;9.126;2023-05-16T05:48:09;17.10;;;5.80;;
63046;SDS011;62025;39.238;9.126;2023-05-16T05:50:36;19.58;;;7.63;;
63046;SDS011;62025;39.238;9.126;2023-05-16T05:53:02;14.82;;;5.70;;
63046;SDS011;62025;39.238;9.126;2023-05-16T05:55:28;24.98;;;6.53;;
63046;SDS011;62025;39.238;9.126;2023-05-16T05:57:54;23.80;;;5.95;;
63046;SDS011;62025;39.238;9.126;2023-05-16T06:00:20;17.40;;;6.38;;
63046;SDS011;62025;39.238;9.126;2023-05-16T06:02:46;22.13;;;6.25;;
63046;SDS011;62025;39.238;9.126;2023-05-16T06:05:13;13.43;;;5.70;;
63046;SDS011;62025;39.238;9.126;2023-05-16T06:07:39;15.25;;;5.43;;
63046;SDS011;62025;39.238;9.126;2023-05-16T06:10:05;15.07;;;5.47;;
63046;SDS011;62025;39.238;9.126;2023-05-16T06:12:32;12.35;;;5.38;;
63046;SDS011;62025;39.238;9.126;2023-05-16T06:14:58;16.73;;;6.07;;
63046;SDS011;62025;39.238;9.126;2023-05-16T06:17:24;19.30;;;5.70;;
63046;SDS011;62025;39.238;9.126;2023-05-16T06:19:50;13.90;;;5.60;;
63046;SDS011;62025;39.238;9.126;2023-05-16T06:22:16;15.32;;;6.03;;
63046;SDS011;62025;39.238;9.126;2023-05-16T06:24:42;17.40;;;5.30;;
63046;SDS011;62025;39.238;9.126;2023-05-16T06:27:08;14.10;;;5.97;;
63046;SDS011;62025;39.238;9.126;2023-05-16T06:29:34;15.40;;;5.82;;
63046;SDS011;62025;39.238;9.126;2023-05-16T06:32:00;19.13;;;5.72;;
63046;SDS011;62025;39.238;9.126;2023-05-16T06:34:26;20.92;;;6.20;;
63046;SDS011;62025;39.238;9.126;2023-05-16T06:36:53;18.30;;;7.40;;
63046;SDS011;62025;39.238;9.126;2023-05-16T06:39:19;17.70;;;5.68;;
63046;SDS011;62025;39.238;9.126;2023-05-16T06:41:45;18.98;;;6.22;;
63046;SDS011;62025;39.238;9.126;2023-05-16T06:44:14;19.23;;;5.90;;
63046;SDS011;62025;39.238;9.126;2023-05-16T06:46:40;16.92;;;5.70;;
63046;SDS011;62025;39.238;9.126;2023-05-16T06:49:06;17.10;;;5.80;;
63046;SDS011;62025;39.238;9.126;2023-05-16T06:51:32;21.90;;;6.28;;
63046;SDS011;62025;39.238;9.126;2023-05-16T06:53:58;21.55;;;5.38;;
63046;SDS011;62025;39.238;9.126;2023-05-16T06:56:24;24.92;;;5.93;;
63046;SDS011;62025;39.238;9.126;2023-05-16T06:58:52;25.67;;;5.93;;
63046;SDS011;62025;39.238;9.126;2023-05-16T07:01:18;19.88;;;5.90;;
63046;SDS011;62025;39.238;9.126;2023-05-16T07:03:44;14.70;;;5.57;;
63046;SDS011;62025;39.238;9.126;2023-05-16T07:06:10;16.23;;;5.30;;
63046;SDS011;62025;39.238;9.126;2023-05-16T07:08:37;16.45;;;5.43;;
63046;SDS011;62025;39.238;9.126;2023-05-16T07:11:03;17.20;;;5.78;;
63046;SDS011;62025;39.238;9.126;2023-05-16T07:13:29;14.50;;;4.90;;
63046;SDS011;62025;39.238;9.126;2023-05-16T07:15:55;11.10;;;5.40;;
63046;SDS011;62025;39.238;9.126;2023-05-16T07:18:21;14.90;;;4.90;;
63046;SDS011;62025;39.238;9.126;2023-05-16T07:20:47;15.40;;;5.18;;
63046;SDS011;62025;39.238;9.126;2023-05-16T07:23:13;15.75;;;4.97;;
63046;SDS011;62025;39.238;9.126;2023-05-16T07:25:38;16.70;;;5.68;;
63046;SDS011;62025;39.238;9.126;2023-05-16T07:28:05;15.13;;;5.30;;
63046;SDS011;62025;39.238;9.126;2023-05-16T07:30:31;17.92;;;5.28;;
63046;SDS011;62025;39.238;9.126;2023-05-16T07:32:57;12.07;;;4.53;;
63046;SDS011;62025;39.238;9.126;2023-05-16T07:35:23;15.63;;;5.53;;
63046;SDS011;62025;39.238;9.126;2023-05-16T07:37:49;17.55;;;5.05;;
63046;SDS011;62025;39.238;9.126;2023-05-16T07:40:15;14.35;;;5.22;;
63046;SDS011;62025;39.238;9.126;2023-05-16T07:42:42;19.10;;;5.95;;
63046;SDS011;62025;39.238;9.126;2023-05-16T07:45:08;18.60;;;5.25;;
63046;SDS011;62025;39.238;9.126;2023-05-16T07:47:35;14.77;;;5.53;;
63046;SDS011;62025;39.238;9.126;2023-05-16T07:50:00;13.40;;;4.75;;
63046;SDS011;62025;39.238;9.126;2023-05-16T07:52:27;12.60;;;4.50;;
63046;SDS011;62025;39.238;9.126;2023-05-16T07:54:53;14.20;;;5.03;;
63046;SDS011;62025;39.238;9.126;2023-05-16T07:57:19;12.68;;;4.57;;
63046;SDS011;62025;39.238;9.126;2023-05-16T07:59:45;14.65;;;4.85;;
63046;SDS011;62025;39.238;9.126;2023-05-16T08:02:11;14.15;;;4.32;;
63046;SDS011;62025;39.238;9.126;2023-05-16T08:04:37;9.75;;;4.10;;
63046;SDS011;62025;39.238;9.126;2023-05-16T08:07:03;13.45;;;4.68;;
63046;SDS011;62025;39.238;9.126;2023-05-16T08:09:30;10.57;;;4.40;;
63046;SDS011;62025;39.238;9.126;2023-05-16T08:11:56;13.00;;;5.25;;
63046;SDS011;62025;39.238;9.126;2023-05-16T08:14:22;12.88;;;4.88;;
63046;SDS011;62025;39.238;9.126;2023-05-16T08:16:48;13.77;;;4.75;;
63046;SDS011;62025;39.238;9.126;2023-05-16T08:19:14;13.05;;;4.40;;
63046;SDS011;62025;39.238;9.126;2023-05-16T08:21:40;10.77;;;4.93;;
63046;SDS011;62025;39.238;9.126;2023-05-16T08:24:06;10.20;;;4.60;;
63046;SDS011;62025;39.238;9.126;2023-05-16T08:26:32;11.57;;;4.80;;
63046;SDS011;62025;39.238;9.126;2023-05-16T08:28:58;13.25;;;4.53;;
63046;SDS011;62025;39.238;9.126;2023-05-16T08:31:24;10.40;;;4.47;;
63046;SDS011;62025;39.238;9.126;2023-05-16T08:33:50;11.40;;;4.50;;
63046;SDS011;62025;39.238;9.126;2023-05-16T08:36:16;29.00;;;5.40;;
63046;SDS011;62025;39.238;9.126;2023-05-16T08:38:44;17.98;;;5.22;;
63046;SDS011;62025;39.238;9.126;2023-05-16T08:41:10;13.27;;;5.00;;
63046;SDS011;62025;39.238;9.126;2023-05-16T08:43:36;13.85;;;5.28;;
63046;SDS011;62025;39.238;9.126;2023-05-16T08:46:02;10.15;;;4.43;;
63046;SDS011;62025;39.238;9.126;2023-05-16T08:48:28;16.15;;;4.63;;
63046;SDS011;62025;39.238;9.126;2023-05-16T08:50:56;12.68;;;5.00;;
63046;SDS011;62025;39.238;9.126;2023-05-16T08:53:30;11.13;;;4.70;;
63046;SDS011;62025;39.238;9.126;2023-05-16T08:56:05;13.02;;;4.97;;
63046;SDS011;62025;39.238;9.126;2023-05-16T08:58:32;13.57;;;4.85;;
63046;SDS011;62025;39.238;9.126;2023-05-16T09:00:59;13.02;;;4.78;;
63046;SDS011;62025;39.238;9.126;2023-05-16T09:03:28;9.70;;;4.70;;
63046;SDS011;62025;39.238;9.126;2023-05-16T09:05:55;12.00;;;4.55;;
63046;SDS011;62025;39.238;9.126;2023-05-16T09:08:21;15.88;;;4.25;;
63046;SDS011;62025;39.238;9.126;2023-05-16T09:10:48;13.07;;;4.43;;
63046;SDS011;62025;39.238;9.126;2023-05-16T09:13:14;13.02;;;3.95;;
63046;SDS011;62025;39.238;9.126;2023-05-16T09:15:40;10.38;;;3.72;;
63046;SDS011;62025;39.238;9.126;2023-05-16T09:18:10;14.20;;;4.72;;
63046;SDS011;62025;39.238;9.126;2023-05-16T09:20:42;16.17;;;4.25;;
63046;SDS011;62025;39.238;9.126;2023-05-16T09:23:11;14.00;;;4.22;;
63046;SDS011;62025;39.238;9.126;2023-05-16T09:25:37;13.13;;;4.10;;
63046;SDS011;62025;39.238;9.126;2023-05-16T09:28:04;16.73;;;4.50;;
63046;SDS011;62025;39.238;9.126;2023-05-16T09:30:35;9.73;;;3.67;;
63046;SDS011;62025;39.238;9.126;2023-05-16T09:33:05;10.60;;;4.33;;
63046;SDS011;62025;39.238;9.126;2023-05-16T09:35:32;9.15;;;3.67;;
63046;SDS011;62025;39.238;9.126;2023-05-16T09:37:57;9.57;;;3.67;;
63046;SDS011;62025;39.238;9.126;2023-05-16T09:40:23;12.82;;;4.20;;
63046;SDS011;62025;39.238;9.126;2023-05-16T09:43:03;11.75;;;3.50;;
63046;SDS011;62025;39.238;9.126;2023-05-16T09:45:31;7.60;;;3.33;;
63046;SDS011;62025;39.238;9.126;2023-05-16T09:48:04;10.43;;;3.67;;
63046;SDS011;62025;39.238;9.126;2023-05-16T09:50:37;9.23;;;3.60;;
63046;SDS011;62025;39.238;9.126;2023-05-16T09:53:03;10.60;;;4.15;;
63046;SDS011;62025;39.238;9.126;2023-05-16T09:55:30;12.73;;;3.97;;
63046;SDS011;62025;39.238;9.126;2023-05-16T09:57:56;14.63;;;3.80;;
63046;SDS011;62025;39.238;9.126;2023-05-16T10:00:27;12.15;;;3.80;;
63046;SDS011;62025;39.238;9.126;2023-05-16T10:02:58;9.20;;;3.47;;
63046;SDS011;62025;39.238;9.126;2023-05-16T10:05:26;8.23;;;3.42;;
63046;SDS011;62025;39.238;9.126;2023-05-16T10:07:54;17.55;;;3.92;;
63046;SDS011;62025;39.238;9.126;2023-05-16T10:12:49;8.55;;;3.15;;
63046;SDS011;62025;39.238;9.126;2023-05-16T10:15:16;9.60;;;3.17;;
63046;SDS011;62025;39.238;9.126;2023-05-16T10:17:44;9.77;;;3.45;;
63046;SDS011;62025;39.238;9.126;2023-05-16T10:20:19;10.18;;;3.30;;
63046;SDS011;62025;39.238;9.126;2023-05-16T10:22:46;9.55;;;3.20;;
63046;SDS011;62025;39.238;9.126;2023-05-16T10:25:38;8.63;;;3.80;;
63046;SDS011;62025;39.238;9.126;2023-05-16T10:28:05;9.25;;;3.65;;
63046;SDS011;62025;39.238;9.126;2023-05-16T10:30:33;10.30;;;4.30;;
63046;SDS011;62025;39.238;9.126;2023-05-16T10:33:02;14.45;;;3.90;;
63046;SDS011;62025;39.238;9.126;2023-05-16T10:35:29;12.20;;;4.20;;
63046;SDS011;62025;39.238;9.126;2023-05-16T10:37:57;12.52;;;4.40;;
63046;SDS011;62025;39.238;9.126;2023-05-16T10:40:24;11.43;;;3.97;;
63046;SDS011;62025;39.238;9.126;2023-05-16T10:42:58;17.15;;;4.88;;
63046;SDS011;62025;39.238;9.126;2023-05-16T10:45:28;9.70;;;4.00;;
63046;SDS011;62025;39.238;9.126;2023-05-16T10:47:55;11.93;;;4.47;;
63046;SDS011;62025;39.238;9.126;2023-05-16T10:50:34;9.20;;;3.95;;
63046;SDS011;62025;39.238;9.126;2023-05-16T10:53:12;14.43;;;3.88;;
63046;SDS011;62025;39.238;9.126;2023-05-16T10:55:44;15.48;;;3.75;;
63046;SDS011;62025;39.238;9.126;2023-05-16T11:06:44;12.23;;;4.13;;
63046;SDS011;62025;39.238;9.126;2023-05-16T11:09:32;8.23;;;3.80;;
63046;SDS011;62025;39.238;9.126;2023-05-16T11:12:01;9.75;;;4.40;;
63046;SDS011;62025;39.238;9.126;2023-05-16T11:17:10;17.02;;;3.97;;
63046;SDS011;62025;39.238;9.126;2023-05-16T11:19:49;13.07;;;3.83;;
63046;SDS011;62025;39.238;9.126;2023-05-16T11:24:48;13.00;;;4.13;;
63046;SDS011;62025;39.238;9.126;2023-05-16T11:27:34;11.82;;;3.90;;
63046;SDS011;62025;39.238;9.126;2023-05-16T11:30:11;9.40;;;3.70;;
63046;SDS011;62025;39.238;9.126;2023-05-16T11:32:39;10.57;;;3.90;;
63046;SDS011;62025;39.238;9.126;2023-05-16T11:35:08;10.80;;;4.07;;
63046;SDS011;62025;39.238;9.126;2023-05-16T11:37:36;9.63;;;4.20;;
63046;SDS011;62025;39.238;9.126;2023-05-16T11:40:23;14.95;;;4.40;;
63046;SDS011;62025;39.238;9.126;2023-05-16T11:42:49;9.18;;;4.13;;
63046;SDS011;62025;39.238;9.126;2023-05-16T11:47:45;11.65;;;3.97;;
63046;SDS011;62025;39.238;9.126;2023-05-16T11:50:16;11.82;;;3.88;;
63046;SDS011;62025;39.238;9.126;2023-05-16T11:52:51;15.05;;;3.78;;
63046;SDS011;62025;39.238;9.126;2023-05-16T11:55:20;14.43;;;4.00;;
63046;SDS011;62025;39.238;9.126;2023-05-16T11:57:52;9.52;;;4.05;;
63046;SDS011;62025;39.238;9.126;2023-05-16T12:00:20;6.85;;;3.80;;
63046;SDS011;62025;39.238;9.126;2023-05-16T12:02:49;16.80;;;4.68;;
63046;SDS011;62025;39.238;9.126;2023-05-16T12:05:18;15.63;;;4.10;;
63046;SDS011;62025;39.238;9.126;2023-05-16T12:07:49;12.30;;;4.50;;
63046;SDS011;62025;39.238;9.126;2023-05-16T12:10:18;12.30;;;3.72;;
63046;SDS011;62025;39.238;9.126;2023-05-16T12:12:46;9.63;;;4.00;;
63046;SDS011;62025;39.238;9.126;2023-05-16T12:15:18;12.85;;;4.30;;
63046;SDS011;62025;39.238;9.126;2023-05-16T12:17:45;10.38;;;4.68;;
63046;SDS011;62025;39.238;9.126;2023-05-16T12:20:12;15.63;;;4.50;;
63046;SDS011;62025;39.238;9.126;2023-05-16T12:22:41;15.05;;;4.40;;
63046;SDS011;62025;39.238;9.126;2023-05-16T12:28:13;15.50;;;4.85;;
63046;SDS011;62025;39.238;9.126;2023-05-16T12:30:41;13.20;;;4.10;;
63046;SDS011;62025;39.238;9.126;2023-05-16T12:33:12;12.45;;;4.60;;
63046;SDS011;62025;39.238;9.126;2023-05-16T12:35:41;16.77;;;4.88;;
63046;SDS011;62025;39.238;9.126;2023-05-16T12:38:14;23.80;;;5.10;;
63046;SDS011;62025;39.238;9.126;2023-05-16T12:40:42;12.15;;;4.03;;
63046;SDS011;62025;39.238;9.126;2023-05-16T12:43:12;12.65;;;4.40;;
63046;SDS011;62025;39.238;9.126;2023-05-16T12:45:54;13.73;;;4.60;;
63046;SDS011;62025;39.238;9.126;2023-05-16T12:48:22;13.38;;;4.53;;
63046;SDS011;62025;39.238;9.126;2023-05-16T12:51:02;11.93;;;4.15;;
63046;SDS011;62025;39.238;9.126;2023-05-16T12:53:44;14.10;;;4.40;;
63046;SDS011;62025;39.238;9.126;2023-05-16T12:56:13;16.13;;;3.83;;
63046;SDS011;62025;39.238;9.126;2023-05-16T12:58:40;10.18;;;3.95;;
63046;SDS011;62025;39.238;9.126;2023-05-16T13:01:07;11.90;;;4.03;;
63046;SDS011;62025;39.238;9.126;2023-05-16T13:03:34;13.38;;;4.13;;
63046;SDS011;62025;39.238;9.126;2023-05-16T13:06:00;12.98;;;4.38;;
63046;SDS011;62025;39.238;9.126;2023-05-16T13:08:28;15.70;;;4.18;;
63046;SDS011;62025;39.238;9.126;2023-05-16T13:10:55;10.93;;;4.47;;
63046;SDS011;62025;39.238;9.126;2023-05-16T13:13:21;14.25;;;4.50;;
63046;SDS011;62025;39.238;9.126;2023-05-16T13:15:47;14.50;;;4.57;;
63046;SDS011;62025;39.238;9.126;2023-05-16T13:18:14;12.82;;;4.40;;
63046;SDS011;62025;39.238;9.126;2023-05-16T13:20:40;16.27;;;5.05;;
63046;SDS011;62025;39.238;9.126;2023-05-16T13:23:06;14.48;;;4.50;;
63046;SDS011;62025;39.238;9.126;2023-05-16T13:25:32;10.27;;;3.92;;
63046;SDS011;62025;39.238;9.126;2023-05-16T13:27:58;10.02;;;3.95;;
63046;SDS011;62025;39.238;9.126;2023-05-16T13:30:25;6.68;;;3.60;;
63046;SDS011;62025;39.238;9.126;2023-05-16T13:32:51;12.48;;;3.83;;
63046;SDS011;62025;39.238;9.126;2023-05-16T13:35:17;10.32;;;4.53;;
63046;SDS011;62025;39.238;9.126;2023-05-16T13:37:43;14.38;;;5.18;;
63046;SDS011;62025;39.238;9.126;2023-05-16T13:40:10;14.10;;;4.30;;
63046;SDS011;62025;39.238;9.126;2023-05-16T13:42:36;15.15;;;5.20;;
63046;SDS011;62025;39.238;9.126;2023-05-16T13:45:06;15.27;;;4.43;;
63046;SDS011;62025;39.238;9.126;2023-05-16T13:47:32;11.63;;;4.22;;
63046;SDS011;62025;39.238;9.126;2023-05-16T13:49:58;13.50;;;5.00;;
63046;SDS011;62025;39.238;9.126;2023-05-16T13:52:30;15.75;;;4.65;;
63046;SDS011;62025;39.238;9.126;2023-05-16T13:54:56;9.68;;;4.07;;
63046;SDS011;62025;39.238;9.126;2023-05-16T13:57:22;13.88;;;4.20;;
63046;SDS011;62025;39.238;9.126;2023-05-16T13:59:48;12.32;;;4.80;;
63046;SDS011;62025;39.238;9.126;2023-05-16T14:02:14;9.27;;;4.20;;
63046;SDS011;62025;39.238;9.126;2023-05-16T14:04:41;11.48;;;4.03;;
63046;SDS011;62025;39.238;9.126;2023-05-16T14:07:06;13.07;;;4.00;;
63046;SDS011;62025;39.238;9.126;2023-05-16T14:09:33;11.57;;;3.85;;
63046;SDS011;62025;39.238;9.126;2023-05-16T14:11:59;8.30;;;4.07;;
63046;SDS011;62025;39.238;9.126;2023-05-16T14:14:28;13.10;;;4.20;;
63046;SDS011;62025;39.238;9.126;2023-05-16T14:16:54;13.07;;;4.20;;
63046;SDS011;62025;39.238;9.126;2023-05-16T14:19:21;9.60;;;4.47;;
63046;SDS011;62025;39.238;9.126;2023-05-16T14:21:47;10.57;;;4.47;;
63046;SDS011;62025;39.238;9.126;2023-05-16T14:24:13;12.32;;;4.18;;
63046;SDS011;62025;39.238;9.126;2023-05-16T14:26:39;13.95;;;4.03;;
63046;SDS011;62025;39.238;9.126;2023-05-16T14:29:05;11.85;;;4.43;;
63046;SDS011;62025;39.238;9.126;2023-05-16T14:31:31;11.32;;;4.38;;
63046;SDS011;62025;39.238;9.126;2023-05-16T14:33:57;15.00;;;4.32;;
63046;SDS011;62025;39.238;9.126;2023-05-16T14:36:24;9.70;;;4.57;;
63046;SDS011;62025;39.238;9.126;2023-05-16T14:38:50;10.25;;;4.55;;
63046;SDS011;62025;39.238;9.126;2023-05-16T14:41:16;12.80;;;4.65;;
63046;SDS011;62025;39.238;9.126;2023-05-16T14:43:42;11.13;;;4.35;;
63046;SDS011;62025;39.238;9.126;2023-05-16T14:46:09;10.70;;;4.60;;
63046;SDS011;62025;39.238;9.126;2023-05-16T14:48:35;10.13;;;4.88;;
63046;SDS011;62025;39.238;9.126;2023-05-16T14:51:01;10.85;;;4.10;;
63046;SDS011;62025;39.238;9.126;2023-05-16T14:53:29;13.80;;;4.57;;
63046;SDS011;62025;39.238;9.126;2023-05-16T14:55:55;8.10;;;4.38;;
63046;SDS011;62025;39.238;9.126;2023-05-16T14:58:21;12.43;;;4.57;;
63046;SDS011;62025;39.238;9.126;2023-05-16T15:00:48;11.77;;;4.35;;
63046;SDS011;62025;39.238;9.126;2023-05-16T15:03:17;11.20;;;4.25;;
63046;SDS011;62025;39.238;9.126;2023-05-16T15:05:43;11.70;;;3.80;;
63046;SDS011;62025;39.238;9.126;2023-05-16T15:08:09;12.65;;;4.15;;
63046;SDS011;62025;39.238;9.126;2023-05-16T15:10:36;10.63;;;4.13;;
63046;SDS011;62025;39.238;9.126;2023-05-16T15:13:02;16.45;;;4.90;;
63046;SDS011;62025;39.238;9.126;2023-05-16T15:15:28;10.35;;;3.63;;
63046;SDS011;62025;39.238;9.126;2023-05-16T15:17:54;12.70;;;4.22;;
63046;SDS011;62025;39.238;9.126;2023-05-16T15:20:20;9.38;;;4.25;;
63046;SDS011;62025;39.238;9.126;2023-05-16T15:22:47;11.38;;;4.10;;